Etusivu
METAR-TAF:

METAR-TAF

Lentoasemat :

Almería, Espanja

Leveyspiiri: 36-51N, Pituuspiiri: 002-23W, korkeus merenpinnasta: 15 m

Tämänhetkinen sää

Tämä raportti tehtiin 14 minuuttia sitten, kello 22.00 UTC
tyyntä
Lämpötila 24°C
Kosteus 38%
Ilmanpaine 1017 hPa
Näkyvyys 10 km tai enemmän
ei pilviä alle 1500 m:ssä eikä cumulonimbus-pilviä

METAR: LEAM 222200Z AUTO 00000KT CAVOK 24/09 Q1017

Aika: 00:14 (22:14 UTC)

Sääennuste

Tämä raportti tehtiin 5 tuntia ja 14 minuuttia sitten, kello 17.00 UTC
Ennuste voimassa 22. päivästä klo 18 UTC - 23. päivään klo 18 UTC
Tuuli 10 kn etelästä/lounaasta
Näkyvyys 10 km tai enemmän
ei pilviä alle 1500 m:ssä eikä cumulonimbus-pilviä
Tulossa
22. päivästä klo 19 UTC - 22. päivään klo 21 UTC
Tuuli 4 kn pohjoisen/luoteesta
Tulossa
23. päivästä klo 07 UTC - 23. päivään klo 09 UTC
Tuuli 10 kn kaakosta

TAF: LEAM 221700Z 2218/2318 20010KT CAVOK TX28/2314Z TN21/2305Z BECMG 2219/2221 34004KT BECMG 2307/2309 13010KT

Säähavainnot ja -ennusteet yli 4000 lentoasemalta (METAR- ja TAF-raportit).

Käytössä olevat sääasemat on merkitty karttaan keltaisilla ja punaisilla pisteillä.

Aseta hiiri pisteen päälle nähdäksesi sääaseman nimen.

Klikkaa sitten nähdäksesi säähavainnot ja -ennusteet.

Kartan vaihtaminen: klikkaa mustalla rastilla varustettuja vihreitä pisteitä, niin voit zoomata sisään; viivalla varustettua vihreää pistettä, niin voit zoomata ulos tai vihreitä nuolia, niin pääset viereisille kartoille.


METAR-TAF: